createdAt,value
2022-11-28T00:00:53.243Z,6.78
2022-11-28T00:03:25.637Z,6.74
2022-11-28T00:05:57.725Z,6.75
2022-11-28T00:08:29.699Z,6.70
2022-11-28T00:11:11.013Z,6.71
2022-11-28T00:13:43.907Z,6.73
2022-11-28T00:16:22.369Z,6.74
2022-11-28T00:18:55.827Z,6.73
2022-11-28T00:21:28.728Z,6.74
2022-11-28T00:24:02.122Z,6.71
2022-11-28T00:26:38.559Z,6.66
2022-11-28T00:29:11.700Z,6.61
2022-11-28T00:31:44.124Z,6.56
2022-11-28T00:34:16.503Z,6.60
2022-11-28T00:36:49.014Z,6.66
2022-11-28T00:39:21.021Z,6.57
2022-11-28T00:41:53.075Z,6.65
2022-11-28T00:44:25.142Z,6.61
2022-11-28T00:46:57.354Z,6.62
2022-11-28T00:49:29.529Z,6.65
2022-11-28T00:52:01.531Z,6.60
2022-11-28T00:54:33.815Z,6.59
2022-11-28T00:57:05.873Z,6.68
2022-11-28T00:59:38.016Z,6.60
2022-11-28T01:02:10.189Z,6.51
2022-11-28T01:04:42.858Z,6.60
2022-11-28T01:07:15.229Z,6.59
2022-11-28T01:09:47.259Z,6.60
2022-11-28T01:12:19.345Z,6.65
2022-11-28T01:14:51.663Z,6.70
2022-11-28T01:17:23.628Z,6.65
2022-11-28T01:19:55.763Z,6.72
2022-11-28T01:22:27.871Z,6.75
2022-11-28T01:25:00.026Z,6.71
2022-11-28T01:27:32.094Z,6.73
2022-11-28T01:30:05.644Z,6.75
2022-11-28T01:32:37.691Z,6.77
2022-11-28T01:35:10.025Z,6.82
2022-11-28T01:37:42.054Z,6.76
2022-11-28T01:40:14.454Z,6.78
2022-11-28T01:42:46.548Z,6.82
2022-11-28T01:45:27.926Z,6.86
2022-11-28T01:48:03.434Z,6.91
2022-11-28T01:50:37.969Z,6.91
2022-11-28T01:53:12.443Z,6.94
2022-11-28T01:55:58.338Z,6.96
2022-11-28T01:58:33.054Z,6.81
2022-11-28T02:01:05.526Z,6.76
2022-11-28T02:03:58.868Z,6.78
2022-11-28T02:06:32.325Z,6.78
2022-11-28T02:09:09.416Z,6.78
2022-11-28T02:12:09.319Z,6.90
2022-11-28T02:15:06.914Z,6.96
2022-11-28T02:18:18.264Z,6.98
2022-11-28T02:21:32.539Z,7.05
2022-11-28T02:24:38.054Z,7.08
2022-11-28T02:27:45.051Z,7.05
2022-11-28T02:30:22.266Z,7.03
2022-11-28T02:33:23.443Z,7.13
2022-11-28T02:36:16.392Z,7.15
2022-11-28T02:39:00.048Z,7.06
2022-11-28T02:41:47.223Z,7.03
2022-11-28T02:44:26.379Z,7.07
2022-11-28T02:47:29.805Z,7.08
2022-11-28T02:50:20.053Z,7.02
2022-11-28T02:52:56.898Z,7.02
2022-11-28T02:55:29.223Z,6.99
2022-11-28T02:58:01.448Z,6.99
2022-11-28T03:00:38.197Z,7.06
2022-11-28T03:03:44.273Z,7.02
2022-11-28T03:06:46.979Z,7.03
2022-11-28T03:09:58.352Z,6.98
2022-11-28T03:13:11.420Z,6.99
2022-11-28T03:16:17.953Z,7.07
2022-11-28T03:19:31.362Z,7.06
2022-11-28T03:22:22.285Z,6.92
2022-11-28T03:25:17.371Z,6.98
2022-11-28T03:28:01.561Z,7.02
2022-11-28T03:30:41.614Z,7.05
2022-11-28T03:33:16.532Z,7.10
2022-11-28T03:36:04.420Z,7.09
2022-11-28T03:38:42.577Z,7.24
2022-11-28T03:41:22.435Z,7.20
2022-11-28T03:43:58.515Z,7.28
2022-11-28T03:46:41.874Z,7.17
2022-11-28T03:49:20.824Z,7.21
2022-11-28T03:52:02.593Z,7.19
2022-11-28T03:54:52.326Z,7.12
2022-11-28T03:57:36.120Z,7.23
2022-11-28T04:00:13.045Z,7.14
2022-11-28T04:03:08.136Z,7.05
2022-11-28T04:05:48.759Z,7.03
2022-11-28T04:08:37.361Z,6.98
2022-11-28T04:11:15.992Z,6.95
2022-11-28T04:13:58.405Z,6.91
2022-11-28T04:16:54.899Z,6.93
2022-11-28T04:20:11.982Z,6.88
2022-11-28T04:22:53.280Z,6.79
2022-11-28T04:25:28.948Z,6.84
2022-11-28T04:28:07.574Z,6.90
2022-11-28T04:30:42.975Z,6.91
2022-11-28T04:33:19.656Z,6.87
2022-11-28T04:35:54.883Z,6.96
2022-11-28T04:38:29.997Z,6.98
2022-11-28T04:41:10.981Z,7.00
2022-11-28T04:43:50.960Z,6.96
2022-11-28T04:46:35.600Z,6.88
2022-11-28T04:49:07.783Z,6.73
2022-11-28T04:52:01.260Z,6.73
2022-11-28T04:55:02.411Z,6.57
2022-11-28T04:57:42.767Z,6.60
2022-11-28T05:00:18.205Z,6.55
2022-11-28T05:02:53.687Z,6.52
2022-11-28T05:05:28.696Z,6.46
2022-11-28T05:08:00.906Z,6.40
2022-11-28T05:10:33.008Z,6.46
2022-11-28T05:13:05.472Z,6.48
2022-11-28T05:15:37.440Z,6.51
2022-11-28T05:18:09.924Z,6.56
2022-11-28T05:20:43.090Z,6.54
2022-11-28T05:23:15.298Z,6.46
2022-11-28T05:25:47.307Z,6.40
2022-11-28T05:28:19.331Z,6.48
2022-11-28T05:31:02.351Z,6.44
2022-11-28T05:33:34.539Z,6.40
2022-11-28T05:36:13.107Z,6.44
2022-11-28T05:38:45.854Z,6.44
2022-11-28T05:41:29.580Z,6.47
2022-11-28T05:44:01.745Z,6.42
2022-11-28T05:46:33.699Z,6.41
2022-11-28T05:49:05.716Z,6.38
2022-11-28T05:51:37.796Z,6.39
2022-11-28T05:54:09.807Z,6.31
2022-11-28T05:56:42.641Z,6.29
2022-11-28T05:59:15.113Z,6.21
2022-11-28T06:01:47.119Z,6.20
2022-11-28T06:04:19.281Z,6.19
2022-11-28T06:06:51.914Z,6.08
2022-11-28T06:09:26.036Z,6.16
2022-11-28T06:11:58.329Z,6.23
2022-11-28T06:14:30.348Z,6.12
2022-11-28T06:17:02.572Z,6.11
2022-11-28T06:19:34.794Z,6.12
2022-11-28T06:22:07.052Z,6.15
2022-11-28T06:24:39.188Z,6.12
2022-11-28T06:27:11.146Z,6.19
2022-11-28T06:29:43.402Z,6.12
2022-11-28T06:32:20.410Z,6.09
2022-11-28T06:34:53.960Z,6.06
2022-11-28T06:37:26.116Z,6.13
2022-11-28T06:39:59.340Z,6.08
2022-11-28T06:42:31.453Z,6.02
2022-11-28T06:45:07.400Z,6.00
2022-11-28T06:47:39.416Z,5.98
2022-11-28T06:50:11.577Z,6.02
2022-11-28T06:52:43.575Z,6.09
2022-11-28T06:55:15.808Z,6.19
2022-11-28T06:57:47.923Z,6.24
2022-11-28T07:00:20.359Z,6.22
2022-11-28T07:02:52.432Z,6.17
2022-11-28T07:05:27.938Z,6.16
2022-11-28T07:08:00.919Z,6.15
2022-11-28T07:10:33.320Z,6.13
2022-11-28T07:13:05.798Z,6.18
2022-11-28T07:15:37.894Z,6.11
2022-11-28T07:18:09.864Z,6.11
2022-11-28T07:20:42.180Z,6.00
2022-11-28T07:23:14.389Z,6.08
2022-11-28T07:25:46.489Z,6.14
2022-11-28T07:28:23.000Z,6.12
2022-11-28T07:31:11.015Z,6.20
2022-11-28T07:33:45.505Z,6.23
2022-11-28T07:36:24.986Z,6.22
2022-11-28T07:39:00.197Z,6.19
2022-11-28T07:41:32.553Z,6.20
2022-11-28T07:44:05.321Z,6.17
2022-11-28T07:46:39.312Z,6.12
2022-11-28T07:49:13.243Z,6.13
2022-11-28T07:51:45.286Z,6.16
2022-11-28T07:54:17.435Z,6.04
2022-11-28T07:57:12.637Z,6.10
2022-11-28T07:59:41.808Z,6.19
2022-11-28T08:02:14.143Z,6.15
2022-11-28T08:04:51.539Z,6.20
2022-11-28T08:07:26.548Z,6.12
2022-11-28T08:09:58.671Z,6.10
2022-11-28T08:12:30.668Z,6.08
2022-11-28T08:15:02.828Z,6.08
2022-11-28T08:17:35.564Z,6.09
2022-11-28T08:20:08.575Z,6.01
2022-11-28T08:22:40.815Z,6.08
2022-11-28T08:25:12.876Z,6.04
2022-11-28T08:27:44.907Z,5.96
2022-11-28T08:30:17.025Z,5.95
2022-11-28T08:32:49.650Z,5.98
2022-11-28T08:35:21.956Z,6.04
2022-11-28T08:37:57.594Z,5.95
2022-11-28T08:40:32.407Z,5.98
2022-11-28T08:43:04.587Z,5.96
2022-11-28T08:45:40.987Z,5.94
2022-11-28T08:48:13.222Z,6.00
2022-11-28T08:50:49.635Z,6.06
2022-11-28T08:53:21.750Z,5.97
2022-11-28T08:55:53.943Z,6.01
2022-11-28T08:58:26.083Z,6.02
2022-11-28T09:00:59.048Z,6.05
2022-11-28T09:03:32.110Z,6.10
2022-11-28T09:06:04.223Z,6.21
2022-11-28T09:08:36.275Z,6.31
2022-11-28T09:11:11.456Z,6.34
2022-11-28T09:13:44.254Z,6.35
2022-11-28T09:16:17.025Z,6.30
2022-11-28T09:18:49.184Z,6.27
2022-11-28T09:21:21.257Z,6.31
2022-11-28T09:23:56.177Z,6.29
2022-11-28T09:26:31.186Z,6.27
2022-11-28T09:29:06.619Z,6.33
2022-11-28T09:31:41.925Z,6.40
2022-11-28T09:34:16.800Z,6.31
2022-11-28T09:36:50.145Z,6.28
2022-11-28T09:39:22.822Z,6.28
2022-11-28T09:42:26.079Z,6.25
2022-11-28T09:45:21.773Z,6.32
2022-11-28T09:48:02.995Z,6.30
2022-11-28T09:50:38.665Z,6.27
2022-11-28T09:53:37.972Z,6.33
2022-11-28T09:56:16.121Z,6.35
2022-11-28T09:58:59.002Z,6.41
2022-11-28T10:02:12.179Z,6.44
2022-11-28T10:05:32.608Z,6.45
2022-11-28T10:08:33.870Z,6.38
2022-11-28T10:11:41.807Z,6.41
2022-11-28T10:14:19.807Z,6.42
2022-11-28T10:17:01.972Z,6.51
2022-11-28T10:20:15.163Z,6.45
2022-11-28T10:23:27.080Z,6.51
2022-11-28T10:26:28.446Z,6.48
2022-11-28T10:29:43.779Z,6.50
2022-11-28T10:32:30.848Z,6.50
2022-11-28T10:35:14.273Z,6.51
2022-11-28T10:37:46.853Z,6.56
2022-11-28T10:40:27.137Z,6.62
2022-11-28T10:43:03.292Z,6.65
2022-11-28T10:46:13.026Z,6.59
2022-11-28T10:49:31.848Z,6.60
2022-11-28T10:52:08.727Z,6.61
2022-11-28T10:54:54.501Z,6.71
2022-11-28T10:58:20.153Z,6.74
2022-11-28T11:00:58.066Z,6.81
2022-11-28T11:03:36.036Z,6.82
2022-11-28T11:06:09.280Z,6.84
2022-11-28T11:08:41.914Z,6.91
2022-11-28T11:11:25.176Z,6.89
2022-11-28T11:14:05.733Z,6.86
2022-11-28T11:16:55.938Z,6.81
2022-11-28T11:19:36.489Z,6.87
2022-11-28T11:22:31.973Z,6.91
2022-11-28T11:25:13.196Z,6.91
2022-11-28T11:28:03.476Z,6.91
2022-11-28T11:30:38.988Z,6.95
2022-11-28T11:33:18.183Z,7.03
2022-11-28T11:35:50.276Z,6.96
2022-11-28T11:38:22.200Z,6.99
2022-11-28T11:40:54.270Z,7.01
2022-11-28T11:43:33.471Z,6.89
2022-11-28T11:46:15.002Z,6.85
2022-11-28T11:48:51.536Z,6.82
2022-11-28T11:51:29.333Z,6.85
2022-11-28T11:54:12.852Z,6.91
2022-11-28T11:56:51.235Z,6.96
2022-11-28T11:59:38.734Z,7.00
2022-11-28T12:02:56.180Z,7.01
2022-11-28T12:06:14.567Z,6.98
2022-11-28T12:08:51.466Z,6.94
2022-11-28T12:11:29.770Z,6.98
2022-11-28T12:14:43.430Z,7.00
2022-11-28T12:17:58.554Z,7.00
2022-11-28T12:21:07.371Z,6.96
2022-11-28T12:23:57.555Z,6.99
2022-11-28T12:26:51.748Z,7.00
2022-11-28T12:29:23.607Z,6.98
2022-11-28T12:32:23.069Z,6.95
2022-11-28T12:35:24.960Z,6.92
2022-11-28T12:38:23.731Z,6.94
2022-11-28T12:41:46.933Z,6.87
2022-11-28T12:44:21.832Z,6.80
2022-11-28T12:47:03.156Z,6.82
2022-11-28T12:49:58.081Z,6.94
2022-11-28T12:53:26.580Z,7.00
2022-11-28T12:56:33.773Z,6.98
2022-11-28T12:59:48.549Z,7.00
2022-11-28T13:02:50.366Z,6.92
2022-11-28T13:05:32.157Z,6.97
2022-11-28T13:08:20.533Z,6.96
2022-11-28T13:11:36.458Z,6.90
2022-11-28T13:14:26.832Z,6.92
2022-11-28T13:17:41.217Z,6.94
2022-11-28T13:20:24.720Z,6.87
2022-11-28T13:23:16.855Z,6.93
2022-11-28T13:26:31.406Z,6.87
2022-11-28T13:29:35.280Z,6.93
2022-11-28T13:32:14.931Z,6.90
2022-11-28T13:34:47.635Z,6.93
2022-11-28T13:41:52.848Z,6.87
2022-11-28T13:44:22.219Z,6.87
2022-11-28T13:46:54.232Z,6.92
2022-11-28T13:49:29.628Z,6.92
2022-11-28T13:52:20.092Z,6.81
2022-11-28T13:54:54.513Z,6.85
2022-11-28T13:57:39.804Z,6.85
2022-11-28T14:00:24.700Z,6.88
2022-11-28T14:03:00.104Z,6.88
2022-11-28T14:05:41.536Z,6.79
2022-11-28T14:08:38.197Z,6.85
2022-11-28T14:12:07.798Z,6.91
2022-11-28T14:15:25.847Z,6.95
2022-11-28T14:18:56.335Z,6.88
2022-11-28T14:21:54.526Z,6.82
2022-11-28T14:25:07.083Z,6.90
2022-11-28T14:27:48.769Z,6.90
2022-11-28T14:30:40.945Z,6.84
2022-11-28T14:33:36.830Z,6.85
2022-11-28T14:36:35.166Z,6.84
2022-11-28T14:39:16.267Z,6.96
2022-11-28T14:42:06.692Z,6.92
2022-11-28T14:44:52.620Z,6.85
2022-11-28T14:47:26.410Z,6.84
2022-11-28T14:50:08.013Z,6.78
2022-11-28T14:52:42.535Z,6.79
2022-11-28T14:55:26.046Z,6.83
2022-11-28T14:58:04.353Z,6.78
2022-11-28T15:00:54.738Z,6.79
2022-11-28T15:03:46.832Z,6.75
2022-11-28T15:06:34.251Z,6.78
2022-11-28T15:09:42.787Z,6.77
2022-11-28T15:12:33.820Z,6.73
2022-11-28T15:15:08.154Z,6.77
2022-11-28T15:17:41.664Z,6.84
2022-11-28T15:20:29.059Z,6.89
2022-11-28T15:23:01.072Z,6.85
2022-11-28T15:25:37.496Z,6.83
2022-11-28T15:28:20.400Z,6.86
2022-11-28T15:30:53.610Z,6.87
2022-11-28T15:33:27.371Z,6.85
2022-11-28T15:36:25.459Z,6.84
2022-11-28T15:38:57.628Z,6.85
2022-11-28T15:41:29.754Z,6.80
2022-11-28T15:44:01.714Z,6.84
2022-11-28T15:46:35.116Z,6.85
2022-11-28T15:49:33.320Z,6.85
2022-11-28T15:52:05.745Z,6.82
2022-11-28T15:54:43.148Z,6.85
2022-11-28T15:57:26.031Z,6.83
2022-11-28T15:59:58.258Z,6.81
2022-11-28T16:02:36.076Z,6.84
2022-11-28T16:05:21.932Z,6.81
2022-11-28T16:07:54.309Z,6.82
2022-11-28T16:10:33.082Z,6.81
2022-11-28T16:13:16.591Z,6.79
2022-11-28T16:15:50.489Z,6.76
2022-11-28T16:18:25.124Z,6.77
2022-11-28T16:21:01.047Z,6.74
2022-11-28T16:23:36.083Z,6.75
2022-11-28T16:26:30.952Z,6.79
2022-11-28T16:29:05.519Z,6.75
2022-11-28T16:31:37.730Z,6.77
2022-11-28T16:34:14.954Z,6.80
2022-11-28T16:36:48.979Z,6.78
2022-11-28T16:39:20.997Z,6.74
2022-11-28T16:42:07.920Z,6.73
2022-11-28T16:44:40.017Z,6.73
2022-11-28T16:47:30.025Z,6.71
2022-11-28T16:50:16.810Z,6.72
2022-11-28T16:52:59.167Z,6.76
2022-11-28T16:55:34.128Z,6.75
2022-11-28T16:58:21.590Z,6.71
2022-11-28T17:01:02.641Z,6.78
2022-11-28T17:03:55.566Z,6.77
2022-11-28T17:06:37.606Z,6.79
2022-11-28T17:09:13.035Z,6.79
2022-11-28T17:12:02.980Z,6.73
2022-11-28T17:14:37.666Z,6.74
2022-11-28T17:17:15.045Z,6.78
2022-11-28T17:19:47.305Z,6.76
2022-11-28T17:22:24.222Z,6.68
2022-11-28T17:25:00.689Z,6.73
2022-11-28T17:27:33.097Z,6.78
2022-11-28T17:30:05.967Z,6.79
2022-11-28T17:32:37.986Z,6.82
2022-11-28T17:35:24.589Z,6.81
2022-11-28T17:37:56.586Z,6.83
2022-11-28T17:40:34.625Z,6.85
2022-11-28T17:43:07.630Z,6.85
2022-11-28T17:45:39.619Z,6.84
2022-11-28T17:48:16.357Z,6.85
2022-11-28T17:50:50.535Z,6.89
2022-11-28T17:53:23.008Z,6.86
2022-11-28T17:55:59.706Z,6.83
2022-11-28T17:58:31.777Z,6.85
2022-11-28T18:01:12.490Z,6.91
2022-11-28T18:03:44.580Z,6.89
2022-11-28T18:06:21.729Z,6.89
2022-11-28T18:08:53.966Z,6.90
2022-11-28T18:11:27.123Z,6.89
2022-11-28T18:13:59.290Z,6.90
2022-11-28T18:16:31.329Z,6.83
2022-11-28T18:19:04.450Z,6.86
2022-11-28T18:21:36.460Z,6.84
2022-11-28T18:24:11.065Z,6.78
2022-11-28T18:26:43.003Z,6.79
2022-11-28T18:29:14.956Z,6.76
2022-11-28T18:31:47.439Z,6.76
2022-11-28T18:34:20.218Z,6.75
2022-11-28T18:37:00.357Z,6.77
2022-11-28T18:39:33.261Z,6.78
2022-11-28T18:42:05.255Z,6.77
2022-11-28T18:44:37.278Z,6.75
2022-11-28T18:47:09.440Z,6.76
2022-11-28T18:49:41.812Z,6.68
2022-11-28T18:52:13.994Z,6.69
2022-11-28T18:54:46.469Z,6.75
2022-11-28T18:57:18.393Z,6.68
2022-11-28T18:59:54.866Z,6.71
2022-11-28T19:02:28.743Z,6.75
2022-11-28T19:05:00.774Z,6.80
2022-11-28T19:07:32.781Z,6.78
2022-11-28T19:10:05.510Z,6.78
2022-11-28T19:12:37.505Z,6.75
2022-11-28T19:15:11.824Z,6.78
2022-11-28T19:17:43.798Z,6.74
2022-11-28T19:20:15.942Z,6.77
2022-11-28T19:22:47.973Z,6.76
2022-11-28T19:25:19.918Z,6.83
2022-11-28T19:27:51.884Z,6.79
2022-11-28T19:30:23.805Z,6.76
2022-11-28T19:32:57.026Z,6.74
2022-11-28T19:35:29.126Z,6.74
2022-11-28T19:38:01.436Z,6.75
2022-11-28T19:40:33.390Z,6.79
2022-11-28T19:43:05.336Z,6.73
2022-11-28T19:45:37.277Z,6.75
2022-11-28T19:48:09.270Z,6.69
2022-11-28T19:50:51.873Z,6.67
2022-11-28T19:53:24.789Z,6.68
2022-11-28T19:55:58.827Z,6.68
2022-11-28T19:58:31.657Z,6.72
2022-11-28T20:01:13.860Z,6.71
2022-11-28T20:03:50.412Z,6.71
2022-11-28T20:06:30.365Z,6.75
2022-11-28T20:09:08.986Z,6.77
2022-11-28T20:11:42.596Z,6.78
2022-11-28T20:14:19.533Z,6.80
2022-11-28T20:16:51.526Z,6.82
2022-11-28T20:19:24.091Z,6.84
2022-11-28T20:21:58.565Z,6.86
2022-11-28T20:24:30.601Z,6.84
2022-11-28T20:27:02.633Z,6.84
2022-11-28T20:29:34.690Z,6.82
2022-11-28T20:32:06.858Z,6.84
2022-11-28T20:34:38.899Z,6.83
2022-11-28T20:37:10.994Z,6.84
2022-11-28T20:39:43.314Z,6.85
2022-11-28T20:42:15.777Z,6.81
2022-11-28T20:44:47.782Z,6.79
2022-11-28T20:47:19.800Z,6.78
2022-11-28T20:49:51.785Z,6.77
2022-11-28T20:52:23.757Z,6.75
2022-11-28T20:54:56.004Z,6.70
2022-11-28T20:57:28.445Z,6.78
2022-11-28T21:00:00.416Z,6.82
2022-11-28T21:02:32.575Z,6.80
2022-11-28T21:05:06.107Z,6.83
2022-11-28T21:07:38.092Z,6.78
2022-11-28T21:10:13.020Z,6.76
2022-11-28T21:12:45.010Z,6.75
2022-11-28T21:15:17.095Z,6.72
2022-11-28T21:17:49.089Z,6.73
2022-11-28T21:20:21.154Z,6.75
2022-11-28T21:22:53.136Z,6.76
2022-11-28T21:25:25.068Z,6.80
2022-11-28T21:27:58.027Z,6.81
2022-11-28T21:30:30.143Z,6.82
2022-11-28T21:33:02.199Z,6.85
2022-11-28T21:35:35.239Z,6.85
2022-11-28T21:38:08.233Z,6.81
2022-11-28T21:40:40.191Z,6.84
2022-11-28T21:43:12.157Z,6.84
2022-11-28T21:45:44.114Z,6.81
2022-11-28T21:48:17.103Z,6.83
2022-11-28T21:50:50.963Z,6.78
2022-11-28T21:53:23.107Z,6.73
2022-11-28T21:55:56.082Z,6.75
2022-11-28T21:58:29.056Z,6.77
2022-11-28T22:01:05.018Z,6.73
2022-11-28T22:03:37.770Z,6.69
2022-11-28T22:06:20.257Z,6.71
2022-11-28T22:08:53.740Z,6.66
2022-11-28T22:11:25.968Z,6.64
2022-11-28T22:13:57.969Z,6.64
2022-11-28T22:16:30.511Z,6.64
2022-11-28T22:19:02.681Z,6.67
2022-11-28T22:21:55.542Z,6.73
2022-11-28T22:24:28.452Z,6.75
2022-11-28T22:27:00.536Z,6.80
2022-11-28T22:29:32.518Z,6.82
2022-11-28T22:32:04.812Z,6.84
2022-11-28T22:34:40.075Z,6.81
2022-11-28T22:37:12.229Z,6.82
2022-11-28T22:39:45.017Z,6.72
2022-11-28T22:42:17.015Z,6.65
2022-11-28T22:44:49.646Z,6.59
2022-11-28T22:47:24.643Z,6.63
2022-11-28T22:49:57.220Z,6.62
2022-11-28T22:52:29.838Z,6.63
2022-11-28T22:55:01.961Z,6.63
2022-11-28T22:57:34.061Z,6.63
2022-11-28T23:00:11.549Z,6.59
2022-11-28T23:02:43.581Z,6.59
2022-11-28T23:05:15.800Z,6.59
2022-11-28T23:07:50.090Z,6.63
2022-11-28T23:10:22.637Z,6.58
2022-11-28T23:12:54.595Z,6.61
2022-11-28T23:15:26.644Z,6.61
2022-11-28T23:17:58.719Z,6.63
2022-11-28T23:20:30.684Z,6.59
2022-11-28T23:23:02.647Z,6.59
2022-11-28T23:25:36.237Z,6.58
2022-11-28T23:28:08.271Z,6.51
2022-11-28T23:30:40.294Z,6.52
2022-11-28T23:33:12.359Z,6.53
2022-11-28T23:35:44.395Z,6.54
2022-11-28T23:38:18.481Z,6.54
2022-11-28T23:40:57.594Z,6.50
2022-11-28T23:43:29.546Z,6.48
2022-11-28T23:46:01.635Z,6.48
2022-11-28T23:48:34.306Z,6.51
2022-11-28T23:51:07.296Z,6.51
2022-11-28T23:53:39.946Z,6.47
2022-11-28T23:56:19.978Z,6.55
2022-11-28T23:58:53.625Z,6.57
